GVBA

Rabil Airport

Rabil, Cape Verde
METAR GVBA 151900Z 06013KT 8000 FEW015 BKN200 24/14 Q1015 NOSIG
Observed Flight Rules
Dec-15 @ 19:00 UTC (53 minutes ago) Marginal Visual Flight Rules
Wind Visibility Clouds
60° at 13 knots 7,998 meters
  • Few at 1,500' AGL
  • Broken at 20,000' AGL
Temperatures Readings
Current 24°C / 75°F
Dewpoint 14°C / 57°F
Humidity 54%
Altimeter 29.97" Hg
Pressure 1015 hPa
Elevation 22
METAR GVBA 151900Z 06013KT 8000 FEW015 BKN200 24/14 Q1015 NOSIG
Observed Flight Rules
Dec-15 @ 19:00 UTC
(53 minutes ago)
MVFR
Wind Visibility
60° at 13 knots 7,998 meters
Clouds
  • Few at 1,500' AGL
  • Broken at 20,000' AGL
Temperature Dewpoint
24°C / 75°F 14°C / 57°F
Humidity Altimeter Pressure
54% 29.97" Hg 1015 hPa